createdAt,value
2017-12-24T00:00:25.726Z,82.10
2017-12-24T00:02:52.789Z,82.10
2017-12-24T00:05:19.599Z,82.10
2017-12-24T00:07:46.262Z,82.10
2017-12-24T00:10:13.030Z,82.20
2017-12-24T00:12:39.701Z,82.20
2017-12-24T00:15:06.357Z,82.20
2017-12-24T00:17:33.071Z,82.20
2017-12-24T00:19:59.794Z,82.30
2017-12-24T00:22:26.500Z,82.30
2017-12-24T00:24:53.286Z,82.40
2017-12-24T00:27:19.967Z,82.40
2017-12-24T00:29:46.820Z,82.40
2017-12-24T00:32:13.577Z,82.40
2017-12-24T00:34:40.286Z,82.30
2017-12-24T00:37:06.923Z,82.40
2017-12-24T00:39:37.934Z,82.40
2017-12-24T00:42:04.730Z,82.40
2017-12-24T00:44:31.490Z,82.40
2017-12-24T00:46:58.159Z,82.50
2017-12-24T00:49:24.843Z,82.50
2017-12-24T00:51:51.590Z,82.40
2017-12-24T00:54:18.288Z,82.50
2017-12-24T00:56:44.971Z,82.50
2017-12-24T00:59:11.705Z,82.40
2017-12-24T01:01:38.369Z,82.30
2017-12-24T01:04:05.012Z,82.40
2017-12-24T01:06:31.706Z,82.40
2017-12-24T01:11:49.263Z,82.40
2017-12-24T01:14:25.358Z,82.50
2017-12-24T01:16:52.218Z,82.50
2017-12-24T01:19:18.890Z,82.50
2017-12-24T01:21:45.674Z,82.50
2017-12-24T01:24:12.332Z,82.40
2017-12-24T01:26:39.403Z,82.30
2017-12-24T01:29:06.150Z,82.30
2017-12-24T01:31:32.818Z,82.50
2017-12-24T01:33:59.477Z,82.50
2017-12-24T01:36:26.141Z,82.40
2017-12-24T01:44:09.993Z,82.60
2017-12-24T01:46:37.823Z,82.40
2017-12-24T01:49:13.249Z,82.40
2017-12-24T01:51:39.884Z,82.40
2017-12-24T01:54:06.622Z,82.40
2017-12-24T01:56:33.404Z,82.50
2017-12-24T01:59:00.051Z,82.40
2017-12-24T02:01:26.713Z,82.40
2017-12-24T02:03:53.359Z,82.50
2017-12-24T02:06:20.162Z,82.50
2017-12-24T02:08:49.847Z,82.50
2017-12-24T02:11:16.517Z,82.40
2017-12-24T02:13:43.162Z,82.50
2017-12-24T02:16:13.857Z,82.40
2017-12-24T02:18:40.514Z,82.40
2017-12-24T02:21:07.583Z,82.30
2017-12-24T02:23:34.209Z,82.30
2017-12-24T02:28:49.343Z,82.40
2017-12-24T02:31:19.685Z,82.40
2017-12-24T02:33:49.820Z,82.40
2017-12-24T02:36:16.512Z,82.40
2017-12-24T02:38:43.335Z,82.50
2017-12-24T02:41:09.992Z,82.40
2017-12-24T02:43:37.781Z,82.40
2017-12-24T02:46:07.729Z,82.40
2017-12-24T02:48:37.860Z,82.30
2017-12-24T02:53:49.342Z,82.30
2017-12-24T03:04:19.267Z,82.40
2017-12-24T03:09:24.667Z,82.30
2017-12-24T03:12:01.294Z,82.30
2017-12-24T03:17:07.463Z,82.30
2017-12-24T03:19:34.146Z,82.40
2017-12-24T03:22:01.771Z,82.50
2017-12-24T03:27:07.735Z,82.20
2017-12-24T03:29:38.155Z,82.30
2017-12-24T03:32:04.977Z,82.30
2017-12-24T03:39:49.247Z,82.40
2017-12-24T03:42:19.744Z,82.30
2017-12-24T03:44:46.401Z,82.20
2017-12-24T03:47:13.050Z,82.20
2017-12-24T03:49:39.693Z,82.20
2017-12-24T03:52:07.758Z,82.30
2017-12-24T03:54:34.391Z,82.30
2017-12-24T03:57:01.050Z,82.30
2017-12-24T03:59:27.828Z,82.20
2017-12-24T04:01:54.500Z,82.10
2017-12-24T04:04:21.200Z,82.40
2017-12-24T04:06:47.947Z,82.20
2017-12-24T04:09:14.597Z,82.30
2017-12-24T04:11:41.311Z,82.20
2017-12-24T04:14:08.031Z,82.20
2017-12-24T04:16:34.702Z,82.20
2017-12-24T04:19:01.342Z,82.20
2017-12-24T04:21:31.903Z,82.40
2017-12-24T04:23:58.553Z,82.30
2017-12-24T04:26:25.353Z,82.30
2017-12-24T04:28:52.018Z,82.30
2017-12-24T04:31:18.657Z,82.20
2017-12-24T04:33:45.443Z,82.20
2017-12-24T04:36:13.724Z,82.20
2017-12-24T04:38:40.395Z,82.10
2017-12-24T04:41:07.045Z,82.10
2017-12-24T04:43:33.746Z,82.40
2017-12-24T04:46:00.461Z,82.30
2017-12-24T04:48:27.137Z,82.20
2017-12-24T04:50:53.800Z,82.30
2017-12-24T04:53:20.477Z,82.40
2017-12-24T04:55:47.217Z,82.30
2017-12-24T04:58:13.886Z,82.40
2017-12-24T05:00:40.538Z,82.20
2017-12-24T05:03:07.593Z,82.40
2017-12-24T05:05:37.846Z,82.40
2017-12-24T05:08:04.515Z,82.30
2017-12-24T05:10:31.189Z,82.30
2017-12-24T05:12:58.270Z,82.30
2017-12-24T05:15:25.083Z,82.30
2017-12-24T05:17:51.715Z,82.40
2017-12-24T05:20:19.751Z,82.40
2017-12-24T05:25:37.373Z,82.50
2017-12-24T05:30:42.757Z,82.40
2017-12-24T05:33:09.404Z,82.40
2017-12-24T05:40:53.482Z,82.40
2017-12-24T05:45:59.250Z,82.60
2017-12-24T05:48:25.944Z,82.60
2017-12-24T05:50:52.724Z,82.50
2017-12-24T05:53:19.363Z,82.50
2017-12-24T05:55:46.415Z,82.50
2017-12-24T05:58:13.841Z,82.50
2017-12-24T06:00:43.945Z,82.50
2017-12-24T06:03:10.598Z,82.60
2017-12-24T06:05:37.246Z,82.60
2017-12-24T06:08:03.923Z,82.60
2017-12-24T06:10:30.697Z,82.50
2017-12-24T06:12:57.358Z,82.60
2017-12-24T06:15:24.025Z,82.50
2017-12-24T06:17:50.686Z,82.60
2017-12-24T06:20:17.440Z,82.60
2017-12-24T06:22:44.114Z,82.50
2017-12-24T06:27:55.381Z,82.60
2017-12-24T06:33:00.805Z,82.50
2017-12-24T06:35:27.450Z,82.50
2017-12-24T06:37:54.218Z,82.60
2017-12-24T06:42:59.777Z,82.60
2017-12-24T06:45:32.023Z,82.50
2017-12-24T06:47:58.792Z,82.50
2017-12-24T06:50:31.379Z,82.60
2017-12-24T06:53:07.430Z,82.60
2017-12-24T06:55:34.102Z,82.70
2017-12-24T06:58:01.921Z,82.60
2017-12-24T07:03:07.569Z,82.70
2017-12-24T07:05:37.832Z,82.70
2017-12-24T07:08:13.579Z,82.60
2017-12-24T07:10:43.810Z,82.60
2017-12-24T07:13:13.901Z,82.70
2017-12-24T07:15:43.873Z,82.70
2017-12-24T07:18:13.935Z,82.70
2017-12-24T07:20:43.838Z,82.70
2017-12-24T07:23:19.493Z,82.70
2017-12-24T07:25:49.811Z,82.70
2017-12-24T07:30:55.792Z,82.80
2017-12-24T07:36:01.547Z,82.70
2017-12-24T07:38:37.406Z,82.70
2017-12-24T07:41:04.047Z,82.70
2017-12-24T07:43:30.719Z,82.70
2017-12-24T07:46:01.827Z,82.80
2017-12-24T07:48:28.634Z,82.80
2017-12-24T07:50:55.358Z,82.70
2017-12-24T07:53:22.130Z,82.80
2017-12-24T07:55:48.815Z,82.70
2017-12-24T07:58:15.507Z,82.70
2017-12-24T08:00:42.278Z,82.70
2017-12-24T08:03:08.919Z,82.80
2017-12-24T08:05:38.022Z,82.70
2017-12-24T08:08:07.962Z,82.80
2017-12-24T08:16:01.614Z,82.80
2017-12-24T08:18:31.915Z,82.80
2017-12-24T08:23:37.508Z,82.90
2017-12-24T08:26:04.165Z,82.80
2017-12-24T08:28:30.803Z,82.70
2017-12-24T08:33:36.571Z,82.70
2017-12-24T08:41:21.656Z,82.80
2017-12-24T08:43:48.299Z,82.70
2017-12-24T08:48:55.893Z,82.80
2017-12-24T08:56:40.427Z,82.80
2017-12-24T08:59:07.082Z,82.90
2017-12-24T09:01:33.831Z,82.90
2017-12-24T09:04:00.550Z,82.90
2017-12-24T09:06:27.324Z,82.90
2017-12-24T09:08:54.039Z,82.80
2017-12-24T09:11:20.802Z,82.80
2017-12-24T09:13:47.473Z,82.90
2017-12-24T09:16:14.131Z,82.70
2017-12-24T09:18:40.961Z,82.80
2017-12-24T09:21:07.606Z,82.80
2017-12-24T09:26:12.761Z,82.80
2017-12-24T09:28:39.409Z,82.70
2017-12-24T09:31:06.186Z,82.70
2017-12-24T09:33:37.934Z,82.90
2017-12-24T09:36:04.602Z,82.70
2017-12-24T09:38:31.247Z,82.80
2017-12-24T09:40:57.910Z,82.70
2017-12-24T09:43:24.547Z,82.70
2017-12-24T09:45:51.221Z,82.70
2017-12-24T09:48:17.957Z,82.70
2017-12-24T09:53:25.971Z,82.80
2017-12-24T09:58:37.941Z,82.70
2017-12-24T10:01:05.053Z,82.70
2017-12-24T10:03:31.823Z,82.70
2017-12-24T10:08:37.550Z,82.70
2017-12-24T10:11:07.882Z,82.70
2017-12-24T10:13:34.542Z,82.80
2017-12-24T10:16:01.549Z,82.70
2017-12-24T10:18:28.246Z,82.80
2017-12-24T10:20:55.020Z,82.70
2017-12-24T10:23:21.922Z,82.80
2017-12-24T10:25:48.971Z,82.70
2017-12-24T10:28:15.669Z,82.70
2017-12-24T10:30:42.491Z,82.80
2017-12-24T10:33:09.238Z,82.70
2017-12-24T10:35:35.946Z,82.70
2017-12-24T10:40:41.535Z,82.70
2017-12-24T10:43:08.270Z,82.80
2017-12-24T10:48:14.269Z,82.70
2017-12-24T10:50:40.942Z,82.70
2017-12-24T10:55:46.897Z,82.80
2017-12-24T10:58:25.582Z,82.70
2017-12-24T11:00:52.254Z,82.70
2017-12-24T11:03:20.280Z,82.80
2017-12-24T11:05:47.140Z,82.80
2017-12-24T11:08:13.957Z,82.70
2017-12-24T11:10:49.614Z,82.70
2017-12-24T11:13:19.943Z,82.80
2017-12-24T11:15:46.590Z,82.70
2017-12-24T11:18:13.271Z,82.70
2017-12-24T11:20:40.085Z,82.80
2017-12-24T11:23:07.972Z,82.80
2017-12-24T11:25:38.046Z,82.60
2017-12-24T11:30:49.934Z,82.80
2017-12-24T11:41:19.486Z,82.80
2017-12-24T11:43:50.041Z,82.80
2017-12-24T11:46:16.746Z,82.70
2017-12-24T11:48:43.545Z,82.70
2017-12-24T11:53:50.095Z,82.20
2017-12-24T11:56:16.822Z,81.80
2017-12-24T11:58:43.602Z,81.60
2017-12-24T12:01:10.325Z,81.30
2017-12-24T12:03:37.054Z,81.10
2017-12-24T12:06:03.728Z,81.00
2017-12-24T12:08:31.955Z,80.20
2017-12-24T12:10:58.680Z,80.30
2017-12-24T12:13:25.437Z,80.20
2017-12-24T12:15:55.961Z,80.10
2017-12-24T12:18:22.685Z,79.90
2017-12-24T12:20:49.451Z,79.90
2017-12-24T12:23:19.972Z,79.70
2017-12-24T12:25:47.024Z,79.70
2017-12-24T12:28:13.689Z,79.40
2017-12-24T12:30:40.406Z,79.50
2017-12-24T12:33:07.209Z,79.20
2017-12-24T12:35:33.979Z,79.20
2017-12-24T12:38:00.670Z,79.10
2017-12-24T12:40:27.306Z,79.10
2017-12-24T12:42:54.400Z,79.00
2017-12-24T12:45:21.163Z,79.00
2017-12-24T12:47:47.808Z,79.00
2017-12-24T12:50:14.472Z,79.10
2017-12-24T12:52:49.698Z,78.90
2017-12-24T12:55:16.753Z,78.70
2017-12-24T12:57:43.539Z,78.70
2017-12-24T13:08:05.622Z,78.50
2017-12-24T13:10:32.386Z,78.30
2017-12-24T13:13:02.062Z,78.20
2017-12-24T13:15:28.820Z,78.20
2017-12-24T13:17:55.957Z,77.90
2017-12-24T13:20:26.094Z,77.90
2017-12-24T13:25:31.965Z,78.20
2017-12-24T13:27:58.673Z,78.20
2017-12-24T13:30:25.404Z,77.90
2017-12-24T13:32:56.046Z,78.00
2017-12-24T13:35:22.718Z,77.80
2017-12-24T13:37:49.378Z,77.60
2017-12-24T13:40:16.429Z,77.70
2017-12-24T13:42:43.087Z,77.70
2017-12-24T13:45:09.849Z,77.60
2017-12-24T13:47:36.528Z,77.60
2017-12-24T13:50:03.585Z,77.40
2017-12-24T13:52:30.438Z,77.30
2017-12-24T13:55:02.140Z,77.20
2017-12-24T13:57:28.956Z,77.30
2017-12-24T13:59:55.667Z,77.30
2017-12-24T14:02:22.344Z,77.40
2017-12-24T14:04:49.084Z,77.10
2017-12-24T14:15:12.360Z,77.10
2017-12-24T14:17:44.099Z,76.80
2017-12-24T14:28:06.921Z,76.70
2017-12-24T14:30:33.679Z,76.80
2017-12-24T14:33:02.229Z,76.80
2017-12-24T14:35:29.021Z,76.50
2017-12-24T14:40:38.066Z,76.40
2017-12-24T14:43:05.076Z,76.50
2017-12-24T14:45:31.743Z,76.30
2017-12-24T14:47:58.388Z,76.10
2017-12-24T14:50:26.063Z,76.20
2017-12-24T14:55:31.842Z,76.40
2017-12-24T15:00:43.702Z,76.20
2017-12-24T15:03:10.339Z,76.10
2017-12-24T15:05:37.014Z,76.40
2017-12-24T15:10:43.043Z,76.10
2017-12-24T15:15:48.191Z,76.10
2017-12-24T15:23:37.707Z,75.80
2017-12-24T15:26:08.103Z,76.10
2017-12-24T15:28:34.734Z,76.00
2017-12-24T15:31:01.389Z,75.90
2017-12-24T15:33:32.093Z,76.00
2017-12-24T15:36:07.682Z,76.00
2017-12-24T15:43:52.225Z,75.90
2017-12-24T15:46:19.278Z,75.80
2017-12-24T15:51:24.625Z,75.30
2017-12-24T15:53:56.137Z,75.30
2017-12-24T15:59:01.451Z,75.50
2017-12-24T16:01:28.234Z,75.50
2017-12-24T16:03:56.200Z,75.80
2017-12-24T16:06:22.865Z,75.30
2017-12-24T16:16:50.167Z,75.10
2017-12-24T16:19:20.061Z,75.30
2017-12-24T16:21:50.158Z,75.10
2017-12-24T16:24:16.822Z,75.30
2017-12-24T16:29:22.800Z,74.90
2017-12-24T16:32:01.683Z,75.00
2017-12-24T16:34:28.402Z,74.90
2017-12-24T16:37:01.747Z,75.00
2017-12-24T16:39:28.392Z,74.80
2017-12-24T16:44:43.788Z,75.00
2017-12-24T16:55:06.384Z,74.40
2017-12-24T17:00:12.153Z,74.30
2017-12-24T17:07:56.191Z,74.40
2017-12-24T17:10:22.879Z,74.00
2017-12-24T17:12:49.670Z,74.20
2017-12-24T17:15:16.403Z,74.20
2017-12-24T17:17:43.220Z,74.10
2017-12-24T17:28:14.177Z,74.40
2017-12-24T17:30:40.856Z,74.10
2017-12-24T17:33:07.697Z,74.20
2017-12-24T17:35:34.467Z,74.00
2017-12-24T17:38:02.195Z,73.80
2017-12-24T17:40:29.094Z,74.20
2017-12-24T17:42:55.808Z,74.00
2017-12-24T17:45:22.484Z,73.70
2017-12-24T17:47:49.135Z,73.90
2017-12-24T17:50:20.252Z,73.80
2017-12-24T17:52:46.928Z,73.50
2017-12-24T17:55:13.653Z,73.50
2017-12-24T17:57:40.406Z,73.70
2017-12-24T18:00:07.210Z,73.60
2017-12-24T18:02:33.866Z,73.40
2017-12-24T18:05:00.527Z,73.40
2017-12-24T18:07:27.298Z,73.30
2017-12-24T18:09:53.990Z,73.00
2017-12-24T18:12:20.859Z,73.10
2017-12-24T18:14:47.617Z,73.00
2017-12-24T18:17:14.300Z,73.40
2017-12-24T18:19:44.399Z,73.10
2017-12-24T18:22:11.057Z,73.00
2017-12-24T18:24:37.886Z,73.10
2017-12-24T18:27:04.582Z,73.10
2017-12-24T18:29:31.388Z,73.10
2017-12-24T18:31:58.177Z,73.00
2017-12-24T18:34:24.847Z,73.10
2017-12-24T18:36:51.506Z,73.40
2017-12-24T18:39:20.143Z,73.80
2017-12-24T18:47:05.247Z,74.50
2017-12-24T18:52:14.244Z,74.80
2017-12-24T18:54:44.427Z,75.10
2017-12-24T18:57:11.102Z,75.10
2017-12-24T19:02:16.878Z,74.90
2017-12-24T19:04:49.943Z,74.50
2017-12-24T19:07:16.744Z,74.40
2017-12-24T19:09:44.170Z,74.10
2017-12-24T19:14:55.864Z,74.00
2017-12-24T19:17:22.523Z,73.20
2017-12-24T19:22:28.126Z,73.20
2017-12-24T19:24:54.956Z,72.70
2017-12-24T19:27:26.286Z,73.30
2017-12-24T19:29:52.941Z,73.00
2017-12-24T19:32:20.027Z,72.50
2017-12-24T19:34:50.256Z,72.50
2017-12-24T19:37:16.948Z,72.80
2017-12-24T19:39:44.086Z,72.50
2017-12-24T19:42:11.191Z,72.20
2017-12-24T19:44:38.258Z,72.20
2017-12-24T19:47:13.928Z,72.20
2017-12-24T19:49:40.634Z,72.40
2017-12-24T19:52:07.363Z,72.60
2017-12-24T19:54:38.356Z,72.20
2017-12-24T19:57:05.053Z,72.20
2017-12-24T20:02:10.978Z,72.10
2017-12-24T20:07:17.180Z,71.90
2017-12-24T20:12:22.748Z,71.80
2017-12-24T20:20:07.412Z,71.90
2017-12-24T20:22:43.859Z,71.90
2017-12-24T20:25:10.631Z,71.90
2017-12-24T20:27:37.308Z,71.60
2017-12-24T20:30:03.994Z,71.70
2017-12-24T20:32:30.819Z,71.60
2017-12-24T20:34:57.541Z,71.70
2017-12-24T20:37:24.256Z,71.60
2017-12-24T20:39:50.992Z,71.60
2017-12-24T20:42:17.773Z,71.60
2017-12-24T20:44:44.895Z,71.60
2017-12-24T20:47:14.335Z,71.60
2017-12-24T20:49:44.214Z,71.60
2017-12-24T20:52:14.384Z,71.50
2017-12-24T20:54:44.308Z,71.70
2017-12-24T20:57:11.131Z,71.60
2017-12-24T20:59:38.398Z,71.50
2017-12-24T21:02:05.236Z,71.30
2017-12-24T21:12:28.646Z,71.60
2017-12-24T21:14:55.501Z,71.50
2017-12-24T21:17:22.320Z,71.10
2017-12-24T21:27:45.338Z,71.10
2017-12-24T21:30:14.406Z,70.80
2017-12-24T21:32:41.251Z,70.70
2017-12-24T21:35:08.134Z,70.80
2017-12-24T21:37:34.939Z,70.70
2017-12-24T21:40:01.812Z,70.90
2017-12-24T21:42:28.635Z,70.80
2017-12-24T21:44:55.463Z,70.90
2017-12-24T21:47:26.427Z,70.70
2017-12-24T21:49:53.235Z,70.50
2017-12-24T21:52:20.068Z,70.80
2017-12-24T21:54:50.438Z,70.80
2017-12-24T21:59:56.441Z,70.10
2017-12-24T22:05:02.386Z,70.10
2017-12-24T22:07:29.469Z,70.70
2017-12-24T22:09:56.637Z,70.40
2017-12-24T22:12:31.863Z,70.40
2017-12-24T22:15:07.904Z,70.80
2017-12-24T22:17:34.575Z,70.50
2017-12-24T22:20:02.413Z,70.30
2017-12-24T22:22:29.731Z,69.60
2017-12-24T22:24:56.620Z,69.70
2017-12-24T22:27:23.328Z,69.80
2017-12-24T22:29:50.153Z,70.20
2017-12-24T22:32:16.902Z,70.40
2017-12-24T22:34:43.719Z,70.00
2017-12-24T22:37:10.588Z,70.10
2017-12-24T22:39:37.357Z,70.10
2017-12-24T22:42:04.461Z,69.90
2017-12-24T22:44:32.383Z,69.90
2017-12-24T22:46:59.026Z,70.10
2017-12-24T22:49:25.913Z,70.30
2017-12-24T22:59:50.153Z,70.10
2017-12-24T23:02:16.926Z,70.00
2017-12-24T23:07:22.262Z,70.20
2017-12-24T23:12:37.821Z,69.80
2017-12-24T23:20:21.607Z,69.70
2017-12-24T23:22:48.418Z,69.80
2017-12-24T23:25:15.235Z,69.70
2017-12-24T23:27:42.054Z,70.50
2017-12-24T23:35:26.631Z,69.90
2017-12-24T23:37:56.506Z,70.00
2017-12-24T23:40:23.288Z,70.00
2017-12-24T23:42:50.339Z,69.60
2017-12-24T23:45:20.339Z,69.40
2017-12-24T23:47:47.064Z,69.80
